sensor_id;sensor_type;location;lat;lon;timestamp;P1;durP1;ratioP1;P2;durP2;ratioP2
1957;SDS011;979;51.076;13.748;2023-01-28T01:11:40;16.60;;;16.20;;
1957;SDS011;979;51.076;13.748;2023-01-28T01:21:36;18.53;;;18.03;;
1957;SDS011;979;51.076;13.748;2023-01-28T01:55:09;16.10;;;15.70;;
1957;SDS011;979;51.076;13.748;2023-01-28T02:31:41;15.87;;;15.47;;
1957;SDS011;979;51.076;13.748;2023-01-28T02:34:22;17.17;;;16.70;;
1957;SDS011;979;51.076;13.748;2023-01-28T02:37:08;16.03;;;15.63;;
1957;SDS011;979;51.076;13.748;2023-01-28T02:39:53;15.93;;;15.53;;
1957;SDS011;979;51.076;13.748;2023-01-28T02:42:29;15.23;;;14.83;;
1957;SDS011;979;51.076;13.748;2023-01-28T02:45:11;16.70;;;16.30;;
1957;SDS011;979;51.076;13.748;2023-01-28T02:47:54;15.40;;;15.00;;
1957;SDS011;979;51.076;13.748;2023-01-28T02:50:28;15.70;;;15.30;;
1957;SDS011;979;51.076;13.748;2023-01-28T02:53:54;18.73;;;17.93;;
1957;SDS011;979;51.076;13.748;2023-01-28T02:56:48;16.93;;;16.43;;
1957;SDS011;979;51.076;13.748;2023-01-28T02:59:33;17.33;;;16.80;;
1957;SDS011;979;51.076;13.748;2023-01-28T03:02:14;16.30;;;15.90;;
1957;SDS011;979;51.076;13.748;2023-01-28T03:05:14;15.93;;;15.53;;
1957;SDS011;979;51.076;13.748;2023-01-28T03:08:07;16.30;;;15.90;;
1957;SDS011;979;51.076;13.748;2023-01-28T03:10:59;15.93;;;15.53;;
1957;SDS011;979;51.076;13.748;2023-01-28T03:13:57;16.00;;;15.60;;
1957;SDS011;979;51.076;13.748;2023-01-28T03:16:55;15.60;;;15.20;;
1957;SDS011;979;51.076;13.748;2023-01-28T03:19:55;15.67;;;15.27;;
1957;SDS011;979;51.076;13.748;2023-01-28T03:22:50;15.80;;;15.40;;
1957;SDS011;979;51.076;13.748;2023-01-28T03:25:46;15.60;;;15.20;;
1957;SDS011;979;51.076;13.748;2023-01-28T03:28:46;15.60;;;15.20;;
1957;SDS011;979;51.076;13.748;2023-01-28T03:31:40;15.77;;;15.37;;
1957;SDS011;979;51.076;13.748;2023-01-28T03:34:36;15.90;;;15.50;;
1957;SDS011;979;51.076;13.748;2023-01-28T03:37:36;15.80;;;15.40;;
1957;SDS011;979;51.076;13.748;2023-01-28T03:40:28;16.00;;;15.60;;
1957;SDS011;979;51.076;13.748;2023-01-28T03:43:18;16.70;;;16.30;;
1957;SDS011;979;51.076;13.748;2023-01-28T03:46:00;16.63;;;16.23;;
1957;SDS011;979;51.076;13.748;2023-01-28T03:49:01;18.33;;;17.83;;
1957;SDS011;979;51.076;13.748;2023-01-28T03:51:47;15.80;;;15.40;;
1957;SDS011;979;51.076;13.748;2023-01-28T03:55:13;15.70;;;15.30;;
1957;SDS011;979;51.076;13.748;2023-01-28T03:58:05;15.50;;;15.10;;
1957;SDS011;979;51.076;13.748;2023-01-28T04:00:47;15.50;;;15.10;;
1957;SDS011;979;51.076;13.748;2023-01-28T04:03:37;16.07;;;15.67;;
1957;SDS011;979;51.076;13.748;2023-01-28T04:06:14;16.10;;;15.70;;
1957;SDS011;979;51.076;13.748;2023-01-28T04:09:22;16.37;;;15.97;;
1957;SDS011;979;51.076;13.748;2023-01-28T04:12:31;15.83;;;15.43;;
1957;SDS011;979;51.076;13.748;2023-01-28T04:15:31;16.67;;;16.27;;
1957;SDS011;979;51.076;13.748;2023-01-28T04:18:15;16.53;;;16.13;;
1957;SDS011;979;51.076;13.748;2023-01-28T04:20:55;18.27;;;17.70;;
1957;SDS011;979;51.076;13.748;2023-01-28T04:23:37;16.00;;;15.60;;
1957;SDS011;979;51.076;13.748;2023-01-28T04:26:20;16.83;;;16.43;;
1957;SDS011;979;51.076;13.748;2023-01-28T04:29:00;16.40;;;16.00;;
1957;SDS011;979;51.076;13.748;2023-01-28T04:31:48;19.67;;;18.77;;
1957;SDS011;979;51.076;13.748;2023-01-28T04:34:53;15.83;;;15.43;;
1957;SDS011;979;51.076;13.748;2023-01-28T04:37:50;16.10;;;15.60;;
1957;SDS011;979;51.076;13.748;2023-01-28T04:40:36;16.30;;;15.90;;
1957;SDS011;979;51.076;13.748;2023-01-28T04:43:23;18.77;;;18.27;;
1957;SDS011;979;51.076;13.748;2023-01-28T04:46:35;16.43;;;16.03;;
1957;SDS011;979;51.076;13.748;2023-01-28T04:49:46;16.50;;;16.10;;
1957;SDS011;979;51.076;13.748;2023-01-28T04:52:46;15.90;;;15.50;;
1957;SDS011;979;51.076;13.748;2023-01-28T04:55:45;16.20;;;15.80;;
1957;SDS011;979;51.076;13.748;2023-01-28T04:58:24;16.23;;;15.83;;
1957;SDS011;979;51.076;13.748;2023-01-28T05:01:13;16.00;;;15.60;;
1957;SDS011;979;51.076;13.748;2023-01-28T05:04:02;16.33;;;15.93;;
1957;SDS011;979;51.076;13.748;2023-01-28T05:06:35;16.63;;;16.23;;
1957;SDS011;979;51.076;13.748;2023-01-28T05:09:19;15.73;;;15.33;;
1957;SDS011;979;51.076;13.748;2023-01-28T05:11:52;16.77;;;16.37;;
1957;SDS011;979;51.076;13.748;2023-01-28T05:14:35;15.80;;;15.40;;
1957;SDS011;979;51.076;13.748;2023-01-28T05:17:23;17.20;;;16.50;;
1957;SDS011;979;51.076;13.748;2023-01-28T05:20:30;16.10;;;15.70;;
1957;SDS011;979;51.076;13.748;2023-01-28T05:23:17;15.80;;;15.40;;
1957;SDS011;979;51.076;13.748;2023-01-28T05:25:55;16.00;;;15.60;;
1957;SDS011;979;51.076;13.748;2023-01-28T05:28:35;16.37;;;15.97;;
1957;SDS011;979;51.076;13.748;2023-01-28T05:31:20;17.13;;;16.63;;
1957;SDS011;979;51.076;13.748;2023-01-28T05:34:04;16.17;;;15.77;;
1957;SDS011;979;51.076;13.748;2023-01-28T05:36:40;16.20;;;15.80;;
1957;SDS011;979;51.076;13.748;2023-01-28T05:39:37;17.20;;;16.67;;
1957;SDS011;979;51.076;13.748;2023-01-28T05:42:20;17.50;;;17.00;;
1957;SDS011;979;51.076;13.748;2023-01-28T05:45:07;15.87;;;15.47;;
1957;SDS011;979;51.076;13.748;2023-01-28T05:48:09;15.50;;;15.10;;
1957;SDS011;979;51.076;13.748;2023-01-28T05:51:14;15.90;;;15.50;;
1957;SDS011;979;51.076;13.748;2023-01-28T05:54:09;15.80;;;15.40;;
1957;SDS011;979;51.076;13.748;2023-01-28T05:56:49;16.17;;;15.77;;
1957;SDS011;979;51.076;13.748;2023-01-28T06:00:04;15.80;;;15.40;;
1957;SDS011;979;51.076;13.748;2023-01-28T06:02:51;15.53;;;15.13;;
1957;SDS011;979;51.076;13.748;2023-01-28T06:05:21;15.80;;;15.40;;
1957;SDS011;979;51.076;13.748;2023-01-28T06:07:51;16.93;;;16.53;;
1957;SDS011;979;51.076;13.748;2023-01-28T06:10:37;15.50;;;15.10;;
1957;SDS011;979;51.076;13.748;2023-01-28T06:13:25;16.63;;;16.23;;
1957;SDS011;979;51.076;13.748;2023-01-28T06:16:29;16.97;;;16.57;;
1957;SDS011;979;51.076;13.748;2023-01-28T06:19:42;15.60;;;15.20;;
1957;SDS011;979;51.076;13.748;2023-01-28T06:22:28;17.50;;;16.80;;
1957;SDS011;979;51.076;13.748;2023-01-28T06:25:06;15.87;;;15.47;;
1957;SDS011;979;51.076;13.748;2023-01-28T06:27:53;18.43;;;17.83;;
1957;SDS011;979;51.076;13.748;2023-01-28T06:30:43;16.00;;;15.50;;
1957;SDS011;979;51.076;13.748;2023-01-28T06:33:27;17.17;;;16.70;;
1957;SDS011;979;51.076;13.748;2023-01-28T06:36:12;16.17;;;15.77;;
1957;SDS011;979;51.076;13.748;2023-01-28T06:38:45;15.60;;;15.20;;
1957;SDS011;979;51.076;13.748;2023-01-28T06:41:23;15.43;;;15.03;;
1957;SDS011;979;51.076;13.748;2023-01-28T06:44:03;16.53;;;16.13;;
1957;SDS011;979;51.076;13.748;2023-01-28T06:46:42;17.80;;;16.97;;
1957;SDS011;979;51.076;13.748;2023-01-28T06:49:14;15.93;;;15.53;;
1957;SDS011;979;51.076;13.748;2023-01-28T06:51:48;15.97;;;15.57;;
1957;SDS011;979;51.076;13.748;2023-01-28T06:54:36;15.90;;;15.50;;
1957;SDS011;979;51.076;13.748;2023-01-28T06:57:12;15.60;;;15.20;;
1957;SDS011;979;51.076;13.748;2023-01-28T07:00:09;16.50;;;16.10;;
1957;SDS011;979;51.076;13.748;2023-01-28T07:02:56;16.10;;;15.70;;
1957;SDS011;979;51.076;13.748;2023-01-28T07:05:39;16.83;;;16.43;;
1957;SDS011;979;51.076;13.748;2023-01-28T07:08:15;15.23;;;14.93;;
1957;SDS011;979;51.076;13.748;2023-01-28T07:10:58;16.10;;;15.70;;
1957;SDS011;979;51.076;13.748;2023-01-28T07:13:41;14.87;;;14.57;;
1957;SDS011;979;51.076;13.748;2023-01-28T07:16:25;15.97;;;15.57;;
1957;SDS011;979;51.076;13.748;2023-01-28T07:19:32;17.60;;;17.00;;
1957;SDS011;979;51.076;13.748;2023-01-28T07:22:09;15.77;;;15.37;;
1957;SDS011;979;51.076;13.748;2023-01-28T07:24:58;15.23;;;14.93;;
1957;SDS011;979;51.076;13.748;2023-01-28T07:27:38;16.27;;;15.87;;
1957;SDS011;979;51.076;13.748;2023-01-28T07:30:41;15.30;;;14.90;;
1957;SDS011;979;51.076;13.748;2023-01-28T07:33:46;14.60;;;14.30;;
1957;SDS011;979;51.076;13.748;2023-01-28T07:36:27;14.70;;;14.40;;
1957;SDS011;979;51.076;13.748;2023-01-28T07:38:59;15.13;;;14.83;;
1957;SDS011;979;51.076;13.748;2023-01-28T07:41:37;14.90;;;14.60;;
1957;SDS011;979;51.076;13.748;2023-01-28T07:44:59;15.20;;;14.90;;
1957;SDS011;979;51.076;13.748;2023-01-28T07:47:28;15.27;;;14.87;;
1957;SDS011;979;51.076;13.748;2023-01-28T07:50:15;14.80;;;14.50;;
1957;SDS011;979;51.076;13.748;2023-01-28T07:52:47;14.90;;;14.60;;
1957;SDS011;979;51.076;13.748;2023-01-28T07:55:57;14.80;;;14.50;;
1957;SDS011;979;51.076;13.748;2023-01-28T07:58:49;14.50;;;14.20;;
1957;SDS011;979;51.076;13.748;2023-01-28T08:01:40;14.90;;;14.60;;
1957;SDS011;979;51.076;13.748;2023-01-28T08:04:31;15.30;;;15.00;;
1957;SDS011;979;51.076;13.748;2023-01-28T08:07:15;14.77;;;14.47;;
1957;SDS011;979;51.076;13.748;2023-01-28T08:10:13;14.80;;;14.50;;
1957;SDS011;979;51.076;13.748;2023-01-28T08:12:57;15.30;;;15.00;;
1957;SDS011;979;51.076;13.748;2023-01-28T08:16:04;15.00;;;14.70;;
1957;SDS011;979;51.076;13.748;2023-01-28T08:19:07;15.60;;;15.20;;
1957;SDS011;979;51.076;13.748;2023-01-28T08:21:55;15.10;;;14.80;;
1957;SDS011;979;51.076;13.748;2023-01-28T08:24:43;14.63;;;14.33;;
1957;SDS011;979;51.076;13.748;2023-01-28T08:27:28;15.10;;;14.80;;
1957;SDS011;979;51.076;13.748;2023-01-28T08:30:23;14.77;;;14.47;;
1957;SDS011;979;51.076;13.748;2023-01-28T08:33:20;13.40;;;13.10;;
1957;SDS011;979;51.076;13.748;2023-01-28T08:36:35;15.30;;;15.00;;
1957;SDS011;979;51.076;13.748;2023-01-28T08:39:27;14.43;;;14.13;;
1957;SDS011;979;51.076;13.748;2023-01-28T08:42:07;14.93;;;14.63;;
1957;SDS011;979;51.076;13.748;2023-01-28T08:44:43;14.93;;;14.63;;
1957;SDS011;979;51.076;13.748;2023-01-28T08:47:26;14.80;;;14.50;;
1957;SDS011;979;51.076;13.748;2023-01-28T08:50:14;14.83;;;14.53;;
1957;SDS011;979;51.076;13.748;2023-01-28T08:53:13;14.70;;;14.40;;
1957;SDS011;979;51.076;13.748;2023-01-28T08:56:20;15.00;;;14.70;;
1957;SDS011;979;51.076;13.748;2023-01-28T08:59:00;14.40;;;14.10;;
1957;SDS011;979;51.076;13.748;2023-01-28T09:01:41;14.40;;;14.10;;
1957;SDS011;979;51.076;13.748;2023-01-28T09:04:23;14.70;;;14.40;;
1957;SDS011;979;51.076;13.748;2023-01-28T09:07:20;14.90;;;14.60;;
1957;SDS011;979;51.076;13.748;2023-01-28T09:09:55;14.77;;;14.47;;
1957;SDS011;979;51.076;13.748;2023-01-28T09:12:43;15.20;;;14.90;;
1957;SDS011;979;51.076;13.748;2023-01-28T09:22:41;16.00;;;15.47;;
1957;SDS011;979;51.076;13.748;2023-01-28T09:28:34;14.30;;;14.00;;
1957;SDS011;979;51.076;13.748;2023-01-28T09:31:28;14.00;;;13.70;;
1957;SDS011;979;51.076;13.748;2023-01-28T09:37:31;13.03;;;12.73;;
1957;SDS011;979;51.076;13.748;2023-01-28T09:40:32;14.20;;;13.90;;
1957;SDS011;979;51.076;13.748;2023-01-28T09:46:23;15.50;;;15.10;;
1957;SDS011;979;51.076;13.748;2023-01-28T09:49:21;14.03;;;13.73;;
1957;SDS011;979;51.076;13.748;2023-01-28T09:52:46;14.70;;;14.40;;
1957;SDS011;979;51.076;13.748;2023-01-28T09:56:02;13.90;;;13.60;;
1957;SDS011;979;51.076;13.748;2023-01-28T09:59:13;14.50;;;14.20;;
1957;SDS011;979;51.076;13.748;2023-01-28T10:02:17;14.33;;;14.03;;
1957;SDS011;979;51.076;13.748;2023-01-28T10:12:22;14.70;;;14.40;;
1957;SDS011;979;51.076;13.748;2023-01-28T10:15:23;14.30;;;14.00;;
1957;SDS011;979;51.076;13.748;2023-01-28T10:18:33;14.23;;;13.93;;
1957;SDS011;979;51.076;13.748;2023-01-28T10:21:35;14.10;;;13.80;;
1957;SDS011;979;51.076;13.748;2023-01-28T10:24:32;12.90;;;12.63;;
1957;SDS011;979;51.076;13.748;2023-01-28T10:27:48;14.00;;;13.70;;
1957;SDS011;979;51.076;13.748;2023-01-28T10:30:38;14.40;;;13.80;;
1957;SDS011;979;51.076;13.748;2023-01-28T10:33:35;14.30;;;14.00;;
1957;SDS011;979;51.076;13.748;2023-01-28T10:36:25;16.00;;;15.13;;
1957;SDS011;979;51.076;13.748;2023-01-28T10:39:21;15.13;;;14.80;;
1957;SDS011;979;51.076;13.748;2023-01-28T10:42:25;15.40;;;15.00;;
1957;SDS011;979;51.076;13.748;2023-01-28T10:45:24;14.00;;;13.70;;
1957;SDS011;979;51.076;13.748;2023-01-28T10:51:31;14.10;;;13.80;;
1957;SDS011;979;51.076;13.748;2023-01-28T10:54:20;13.70;;;13.40;;
1957;SDS011;979;51.076;13.748;2023-01-28T10:56:51;14.10;;;13.80;;
1957;SDS011;979;51.076;13.748;2023-01-28T10:59:27;15.00;;;14.70;;
1957;SDS011;979;51.076;13.748;2023-01-28T11:02:21;13.80;;;13.50;;
1957;SDS011;979;51.076;13.748;2023-01-28T11:05:16;14.13;;;13.83;;
1957;SDS011;979;51.076;13.748;2023-01-28T11:08:21;14.30;;;14.00;;
1957;SDS011;979;51.076;13.748;2023-01-28T11:14:37;14.73;;;14.43;;
1957;SDS011;979;51.076;13.748;2023-01-28T11:17:22;13.63;;;13.33;;
1957;SDS011;979;51.076;13.748;2023-01-28T11:20:12;14.10;;;13.80;;
1957;SDS011;979;51.076;13.748;2023-01-28T11:23:20;14.00;;;13.70;;
1957;SDS011;979;51.076;13.748;2023-01-28T11:26:30;14.90;;;14.60;;
1957;SDS011;979;51.076;13.748;2023-01-28T11:29:44;14.60;;;14.30;;
1957;SDS011;979;51.076;13.748;2023-01-28T11:33:04;14.50;;;14.20;;
1957;SDS011;979;51.076;13.748;2023-01-28T11:36:06;14.60;;;14.30;;
1957;SDS011;979;51.076;13.748;2023-01-28T11:39:03;14.83;;;14.47;;
1957;SDS011;979;51.076;13.748;2023-01-28T11:42:52;14.60;;;14.30;;
1957;SDS011;979;51.076;13.748;2023-01-28T11:45:28;14.43;;;14.13;;
1957;SDS011;979;51.076;13.748;2023-01-28T11:48:29;14.50;;;14.20;;
1957;SDS011;979;51.076;13.748;2023-01-28T11:51:34;14.30;;;14.00;;
1957;SDS011;979;51.076;13.748;2023-01-28T11:54:33;14.10;;;13.80;;
1957;SDS011;979;51.076;13.748;2023-01-28T11:57:25;14.10;;;13.80;;
1957;SDS011;979;51.076;13.748;2023-01-28T12:04:39;14.30;;;14.00;;
1957;SDS011;979;51.076;13.748;2023-01-28T12:07:45;15.30;;;15.00;;
1957;SDS011;979;51.076;13.748;2023-01-28T12:10:58;14.50;;;14.20;;
1957;SDS011;979;51.076;13.748;2023-01-28T12:14:33;14.50;;;14.20;;
1957;SDS011;979;51.076;13.748;2023-01-28T12:17:50;15.20;;;14.80;;
1957;SDS011;979;51.076;13.748;2023-01-28T12:25:30;14.43;;;14.13;;
1957;SDS011;979;51.076;13.748;2023-01-28T12:29:33;15.87;;;15.37;;
1957;SDS011;979;51.076;13.748;2023-01-28T12:36:09;13.37;;;13.07;;
1957;SDS011;979;51.076;13.748;2023-01-28T12:39:08;14.30;;;14.00;;
1957;SDS011;979;51.076;13.748;2023-01-28T12:42:41;15.10;;;14.70;;
1957;SDS011;979;51.076;13.748;2023-01-28T12:45:58;15.17;;;14.83;;
1957;SDS011;979;51.076;13.748;2023-01-28T12:49:02;13.90;;;13.60;;
1957;SDS011;979;51.076;13.748;2023-01-28T12:54:55;14.40;;;14.10;;
1957;SDS011;979;51.076;13.748;2023-01-28T12:57:59;12.87;;;12.50;;
1957;SDS011;979;51.076;13.748;2023-01-28T13:01:06;13.90;;;13.60;;
1957;SDS011;979;51.076;13.748;2023-01-28T13:03:53;13.80;;;13.50;;
1957;SDS011;979;51.076;13.748;2023-01-28T13:06:46;13.80;;;13.50;;
1957;SDS011;979;51.076;13.748;2023-01-28T13:09:49;14.20;;;13.90;;
1957;SDS011;979;51.076;13.748;2023-01-28T13:12:28;13.50;;;13.20;;
1957;SDS011;979;51.076;13.748;2023-01-28T13:15:18;13.50;;;13.20;;
1957;SDS011;979;51.076;13.748;2023-01-28T13:18:03;14.07;;;13.77;;
1957;SDS011;979;51.076;13.748;2023-01-28T13:20:51;13.97;;;13.67;;
1957;SDS011;979;51.076;13.748;2023-01-28T13:23:38;14.20;;;13.90;;
1957;SDS011;979;51.076;13.748;2023-01-28T13:26:36;14.87;;;14.57;;
1957;SDS011;979;51.076;13.748;2023-01-28T13:29:41;13.10;;;12.80;;
1957;SDS011;979;51.076;13.748;2023-01-28T13:32:37;16.93;;;16.30;;
1957;SDS011;979;51.076;13.748;2023-01-28T13:35:27;15.13;;;14.73;;
1957;SDS011;979;51.076;13.748;2023-01-28T13:38:35;14.20;;;13.90;;
1957;SDS011;979;51.076;13.748;2023-01-28T13:41:26;14.00;;;13.70;;
1957;SDS011;979;51.076;13.748;2023-01-28T13:44:45;14.10;;;13.80;;
1957;SDS011;979;51.076;13.748;2023-01-28T13:47:31;14.10;;;13.80;;
1957;SDS011;979;51.076;13.748;2023-01-28T13:50:22;15.63;;;15.13;;
1957;SDS011;979;51.076;13.748;2023-01-28T13:53:30;13.87;;;13.57;;
1957;SDS011;979;51.076;13.748;2023-01-28T13:56:31;14.30;;;14.00;;
1957;SDS011;979;51.076;13.748;2023-01-28T13:59:32;13.80;;;13.50;;
1957;SDS011;979;51.076;13.748;2023-01-28T14:06:09;14.30;;;14.00;;
1957;SDS011;979;51.076;13.748;2023-01-28T14:18:47;13.60;;;13.30;;
1957;SDS011;979;51.076;13.748;2023-01-28T14:21:24;13.57;;;13.27;;
1957;SDS011;979;51.076;13.748;2023-01-28T14:23:55;13.60;;;13.30;;
1957;SDS011;979;51.076;13.748;2023-01-28T14:26:34;13.80;;;13.50;;
1957;SDS011;979;51.076;13.748;2023-01-28T14:29:13;15.30;;;14.90;;
1957;SDS011;979;51.076;13.748;2023-01-28T14:32:03;14.23;;;13.93;;
1957;SDS011;979;51.076;13.748;2023-01-28T14:34:33;13.83;;;13.53;;
1957;SDS011;979;51.076;13.748;2023-01-28T14:37:08;14.03;;;13.73;;
1957;SDS011;979;51.076;13.748;2023-01-28T14:39:44;13.87;;;13.57;;
1957;SDS011;979;51.076;13.748;2023-01-28T14:42:19;14.40;;;14.10;;
1957;SDS011;979;51.076;13.748;2023-01-28T14:45:00;15.67;;;15.27;;
1957;SDS011;979;51.076;13.748;2023-01-28T14:50:46;13.70;;;13.40;;
1957;SDS011;979;51.076;13.748;2023-01-28T14:53:53;13.67;;;13.37;;
1957;SDS011;979;51.076;13.748;2023-01-28T14:57:01;13.07;;;12.77;;
1957;SDS011;979;51.076;13.748;2023-01-28T19:20:46;13.83;;;13.53;;
1957;SDS011;979;51.076;13.748;2023-01-28T19:23:37;13.93;;;13.63;;
1957;SDS011;979;51.076;13.748;2023-01-28T19:27:00;13.00;;;12.70;;
1957;SDS011;979;51.076;13.748;2023-01-28T19:30:01;14.60;;;14.30;;
1957;SDS011;979;51.076;13.748;2023-01-28T19:36:29;14.10;;;13.80;;
1957;SDS011;979;51.076;13.748;2023-01-28T19:39:12;15.10;;;14.77;;
1957;SDS011;979;51.076;13.748;2023-01-28T19:42:50;15.37;;;14.97;;
1957;SDS011;979;51.076;13.748;2023-01-28T19:45:38;14.60;;;14.30;;
1957;SDS011;979;51.076;13.748;2023-01-28T19:48:50;14.07;;;13.77;;
1957;SDS011;979;51.076;13.748;2023-01-28T19:51:35;14.30;;;14.00;;
1957;SDS011;979;51.076;13.748;2023-01-28T19:54:12;15.07;;;14.47;;
1957;SDS011;979;51.076;13.748;2023-01-28T19:56:51;13.80;;;13.50;;
1957;SDS011;979;51.076;13.748;2023-01-28T20:04:12;14.43;;;14.13;;
1957;SDS011;979;51.076;13.748;2023-01-28T20:15:06;15.53;;;15.20;;
1957;SDS011;979;51.076;13.748;2023-01-28T20:42:08;14.90;;;14.60;;
1957;SDS011;979;51.076;13.748;2023-01-28T20:54:06;15.40;;;15.10;;
1957;SDS011;979;51.076;13.748;2023-01-28T21:49:23;16.57;;;16.17;;
1957;SDS011;979;51.076;13.748;2023-01-28T22:10:49;16.00;;;15.60;;
1957;SDS011;979;51.076;13.748;2023-01-28T22:20:37;15.70;;;15.30;;
1957;SDS011;979;51.076;13.748;2023-01-28T22:23:13;15.40;;;15.10;;
1957;SDS011;979;51.076;13.748;2023-01-28T22:25:46;15.30;;;15.00;;
1957;SDS011;979;51.076;13.748;2023-01-28T22:28:51;15.63;;;15.23;;
1957;SDS011;979;51.076;13.748;2023-01-28T22:31:37;15.30;;;15.00;;
1957;SDS011;979;51.076;13.748;2023-01-28T22:34:14;15.70;;;15.30;;
1957;SDS011;979;51.076;13.748;2023-01-28T22:37:15;15.70;;;15.40;;
1957;SDS011;979;51.076;13.748;2023-01-28T22:40:07;17.63;;;17.03;;
1957;SDS011;979;51.076;13.748;2023-01-28T22:43:18;15.63;;;15.27;;
1957;SDS011;979;51.076;13.748;2023-01-28T22:46:01;15.97;;;15.57;;
1957;SDS011;979;51.076;13.748;2023-01-28T22:48:52;15.53;;;15.13;;
1957;SDS011;979;51.076;13.748;2023-01-28T22:51:31;15.90;;;15.50;;
1957;SDS011;979;51.076;13.748;2023-01-28T22:54:54;15.93;;;15.53;;
1957;SDS011;979;51.076;13.748;2023-01-28T22:57:54;15.67;;;15.37;;
1957;SDS011;979;51.076;13.748;2023-01-28T23:01:07;15.40;;;15.10;;
1957;SDS011;979;51.076;13.748;2023-01-28T23:04:04;15.70;;;15.30;;
1957;SDS011;979;51.076;13.748;2023-01-28T23:09:41;17.20;;;16.67;;
1957;SDS011;979;51.076;13.748;2023-01-28T23:12:29;15.30;;;15.00;;
1957;SDS011;979;51.076;13.748;2023-01-28T23:15:08;18.60;;;18.00;;
1957;SDS011;979;51.076;13.748;2023-01-28T23:17:59;16.10;;;15.70;;
1957;SDS011;979;51.076;13.748;2023-01-28T23:21:25;18.20;;;17.60;;
1957;SDS011;979;51.076;13.748;2023-01-28T23:24:46;15.57;;;15.20;;
1957;SDS011;979;51.076;13.748;2023-01-28T23:42:53;17.03;;;16.53;;
1957;SDS011;979;51.076;13.748;2023-01-28T23:46:06;15.70;;;15.30;;
1957;SDS011;979;51.076;13.748;2023-01-28T23:49:02;16.10;;;15.70;;
1957;SDS011;979;51.076;13.748;2023-01-28T23:51:46;16.20;;;15.73;;
1957;SDS011;979;51.076;13.748;2023-01-28T23:55:02;14.90;;;14.60;;
1957;SDS011;979;51.076;13.748;2023-01-28T23:58:04;15.03;;;14.73;;
